createdAt,value
2017-06-12T00:01:50.946Z,2.30
2017-06-12T00:04:19.726Z,2.56
2017-06-12T00:06:49.454Z,2.78
2017-06-12T00:09:18.231Z,2.60
2017-06-12T00:11:46.994Z,2.46
2017-06-12T00:14:16.850Z,2.02
2017-06-12T00:16:45.618Z,2.40
2017-06-12T00:19:14.397Z,2.80
2017-06-12T00:21:43.175Z,2.48
2017-06-12T00:24:11.938Z,2.88
2017-06-12T00:26:40.706Z,2.38
2017-06-12T00:29:09.622Z,2.40
2017-06-12T00:31:38.402Z,2.72
2017-06-12T00:34:08.146Z,2.50
2017-06-12T00:36:36.952Z,2.50
2017-06-12T00:39:06.634Z,2.82
2017-06-12T00:41:35.411Z,2.26
2017-06-12T00:44:04.214Z,2.42
2017-06-12T00:46:32.982Z,2.52
2017-06-12T00:49:01.770Z,2.42
2017-06-12T00:51:30.682Z,3.10
2017-06-12T00:53:59.458Z,2.62
2017-06-12T00:56:28.306Z,2.42
2017-06-12T00:58:57.190Z,2.52
2017-06-12T01:01:26.958Z,2.20
2017-06-12T01:03:55.732Z,2.88
2017-06-12T01:06:25.465Z,2.78
2017-06-12T01:08:53.458Z,2.38
2017-06-12T01:11:22.218Z,3.10
2017-06-12T01:13:51.126Z,2.80
2017-06-12T01:16:19.898Z,3.14
2017-06-12T01:18:48.681Z,2.36
2017-06-12T01:21:17.454Z,2.84
2017-06-12T01:23:46.222Z,2.84
2017-06-12T01:26:15.090Z,2.40
2017-06-12T01:28:43.858Z,2.74
2017-06-12T01:31:12.633Z,2.90
2017-06-12T01:33:41.413Z,2.38
2017-06-12T01:36:10.189Z,2.48
2017-06-12T01:38:39.009Z,2.98
2017-06-12T01:41:07.769Z,2.36
2017-06-12T01:43:36.574Z,2.60
2017-06-12T01:46:05.345Z,2.62
2017-06-12T01:48:34.129Z,2.30
2017-06-12T01:51:02.905Z,2.20
2017-06-12T01:53:31.753Z,2.66
2017-06-12T01:56:01.422Z,2.42
2017-06-12T01:58:30.229Z,2.92
2017-06-12T02:00:59.933Z,2.66
2017-06-12T02:03:28.701Z,2.50
2017-06-12T02:05:58.433Z,2.60
2017-06-12T02:08:28.121Z,2.60
2017-06-12T02:10:57.861Z,2.70
2017-06-12T02:13:26.625Z,2.30
2017-06-12T02:15:56.321Z,2.90
2017-06-12T02:18:25.097Z,2.58
2017-06-12T02:20:53.877Z,2.64
2017-06-12T02:23:24.682Z,2.60
2017-06-12T02:25:53.461Z,2.70
2017-06-12T02:28:22.221Z,2.78
2017-06-12T02:30:52.049Z,3.48
2017-06-12T02:33:20.825Z,3.12
2017-06-12T02:35:49.589Z,2.38
2017-06-12T02:38:18.389Z,3.46
2017-06-12T02:40:47.161Z,3.16
2017-06-12T02:43:15.156Z,3.50
2017-06-12T02:45:43.973Z,3.36
2017-06-12T02:48:12.749Z,3.58
2017-06-12T02:50:41.521Z,3.16
2017-06-12T02:53:10.297Z,2.86
2017-06-12T02:55:39.073Z,3.86
2017-06-12T02:58:07.860Z,3.32
2017-06-12T03:00:36.721Z,3.36
2017-06-12T03:03:05.493Z,3.34
2017-06-12T03:05:34.269Z,2.86
2017-06-12T03:08:03.173Z,3.16
2017-06-12T03:10:33.809Z,3.28
2017-06-12T03:13:02.608Z,3.54
2017-06-12T03:15:31.386Z,3.74
2017-06-12T03:18:00.148Z,3.22
2017-06-12T03:20:28.925Z,3.46
2017-06-12T03:22:57.744Z,3.00
2017-06-12T03:25:26.517Z,3.32
2017-06-12T03:27:55.292Z,3.10
2017-06-12T03:30:24.060Z,3.20
2017-06-12T03:32:52.840Z,3.32
2017-06-12T03:35:21.757Z,2.94
2017-06-12T03:37:49.852Z,3.56
2017-06-12T03:40:18.624Z,3.60
2017-06-12T03:42:47.644Z,3.20
2017-06-12T03:45:16.676Z,3.34
2017-06-12T03:47:45.448Z,3.38
2017-06-12T03:50:15.332Z,3.10
2017-06-12T03:52:44.104Z,3.60
2017-06-12T03:55:12.991Z,3.80
2017-06-12T03:57:41.804Z,3.64
2017-06-12T04:00:10.688Z,3.42
2017-06-12T04:02:39.464Z,3.48
2017-06-12T04:05:08.267Z,3.66
2017-06-12T04:07:38.384Z,3.10
2017-06-12T04:10:07.155Z,3.20
2017-06-12T04:12:35.936Z,3.60
2017-06-12T04:15:04.712Z,3.24
2017-06-12T04:17:33.476Z,3.56
2017-06-12T04:20:02.296Z,3.36
2017-06-12T04:22:31.067Z,3.26
2017-06-12T04:24:59.840Z,2.90
2017-06-12T04:27:28.628Z,2.90
2017-06-12T04:29:57.407Z,3.16
2017-06-12T04:32:26.263Z,3.30
2017-06-12T04:34:55.243Z,3.50
2017-06-12T04:37:24.036Z,3.40
2017-06-12T04:39:52.827Z,3.06
2017-06-12T04:42:21.607Z,3.56
2017-06-12T04:44:50.379Z,3.00
2017-06-12T04:47:19.176Z,2.72
2017-06-12T04:49:48.175Z,3.20
2017-06-12T04:52:16.959Z,3.50
2017-06-12T04:54:45.759Z,3.32
2017-06-12T04:57:14.646Z,2.62
2017-06-12T04:59:43.431Z,3.02
2017-06-12T05:02:12.227Z,2.96
2017-06-12T05:04:40.999Z,2.90
2017-06-12T05:07:10.511Z,3.02
2017-06-12T05:09:39.651Z,2.54
2017-06-12T05:12:08.599Z,3.00
2017-06-12T05:14:37.362Z,3.36
2017-06-12T05:17:06.183Z,2.92
2017-06-12T05:19:34.987Z,3.08
2017-06-12T05:22:03.758Z,3.38
2017-06-12T05:24:32.535Z,3.34
2017-06-12T05:27:01.535Z,3.10
2017-06-12T05:29:30.306Z,3.14
2017-06-12T05:31:59.075Z,2.72
2017-06-12T05:34:27.994Z,2.80
2017-06-12T05:36:56.874Z,3.62
2017-06-12T05:39:25.646Z,2.60
2017-06-12T05:41:54.554Z,4.40
2017-06-12T05:44:23.318Z,3.22
2017-06-12T05:46:52.137Z,3.08
2017-06-12T05:49:21.038Z,3.28
2017-06-12T05:51:49.907Z,3.08
2017-06-12T05:54:18.674Z,3.50
2017-06-12T05:56:47.586Z,3.00
2017-06-12T05:59:16.390Z,3.54
2017-06-12T06:01:45.158Z,3.12
2017-06-12T06:04:13.950Z,3.28
2017-06-12T06:06:42.722Z,3.04
2017-06-12T06:09:11.522Z,3.72
2017-06-12T06:11:39.646Z,2.88
2017-06-12T06:14:08.406Z,3.70
2017-06-12T06:16:36.402Z,3.38
2017-06-12T06:19:04.402Z,3.14
2017-06-12T06:21:33.618Z,2.86
2017-06-12T06:24:02.378Z,2.96
2017-06-12T06:26:31.191Z,3.54
2017-06-12T06:28:59.962Z,3.96
2017-06-12T06:31:28.722Z,3.30
2017-06-12T06:33:57.870Z,3.34
2017-06-12T06:36:26.650Z,3.08
2017-06-12T06:38:55.440Z,3.40
2017-06-12T06:41:24.209Z,3.62
2017-06-12T06:43:53.018Z,3.58
2017-06-12T06:46:21.778Z,3.18
2017-06-12T06:48:50.590Z,3.24
2017-06-12T06:51:19.377Z,3.20
2017-06-12T06:53:48.153Z,3.34
2017-06-12T06:56:16.906Z,3.48
2017-06-12T06:58:45.738Z,3.32
2017-06-12T07:01:14.525Z,3.06
2017-06-12T07:03:43.313Z,3.60
2017-06-12T07:06:12.102Z,3.60
2017-06-12T07:08:40.890Z,3.48
2017-06-12T07:11:09.874Z,3.08
2017-06-12T07:13:38.633Z,3.40
2017-06-12T07:16:07.401Z,3.92
2017-06-12T07:18:36.177Z,3.30
2017-06-12T07:21:04.938Z,3.24
2017-06-12T07:23:33.713Z,3.24
2017-06-12T07:26:02.505Z,3.22
2017-06-12T07:28:31.297Z,3.22
2017-06-12T07:31:00.085Z,2.96
2017-06-12T07:33:28.969Z,3.22
2017-06-12T07:35:57.757Z,3.74
2017-06-12T07:38:26.517Z,3.52
2017-06-12T07:40:55.289Z,3.62
2017-06-12T07:43:24.121Z,3.24
2017-06-12T07:45:52.909Z,3.74
2017-06-12T07:48:21.797Z,3.30
2017-06-12T07:50:50.569Z,2.98
2017-06-12T07:53:19.325Z,3.00
2017-06-12T07:55:48.113Z,3.34
2017-06-12T07:58:16.945Z,2.90
2017-06-12T08:00:45.713Z,3.20
2017-06-12T08:03:14.500Z,3.20
2017-06-12T08:05:43.261Z,3.38
2017-06-12T08:08:12.025Z,3.46
2017-06-12T08:10:40.989Z,3.46
2017-06-12T08:13:09.772Z,3.38
2017-06-12T08:15:38.541Z,3.28
2017-06-12T08:18:07.349Z,3.62
2017-06-12T08:20:36.121Z,3.68
2017-06-12T08:23:04.924Z,3.00
2017-06-12T08:25:33.717Z,2.90
2017-06-12T08:28:02.514Z,2.76
2017-06-12T08:30:31.272Z,3.26
2017-06-12T08:33:00.040Z,2.86
2017-06-12T08:35:28.808Z,3.26
2017-06-12T08:37:57.568Z,2.80
2017-06-12T08:40:26.436Z,2.84
2017-06-12T08:42:55.200Z,3.40
2017-06-12T08:45:24.013Z,2.84
2017-06-12T08:47:52.792Z,3.36
2017-06-12T08:50:21.552Z,3.02
2017-06-12T08:52:50.380Z,3.46
2017-06-12T08:55:19.154Z,3.10
2017-06-12T08:57:47.952Z,2.66
2017-06-12T09:00:16.724Z,2.68
2017-06-12T09:02:45.508Z,2.60
2017-06-12T09:05:14.316Z,2.70
2017-06-12T09:07:43.104Z,2.44
2017-06-12T09:10:12.000Z,2.60
2017-06-12T09:12:40.788Z,2.80
2017-06-12T09:15:09.572Z,2.56
2017-06-12T09:17:38.344Z,2.82
2017-06-12T09:20:07.108Z,2.88
2017-06-12T09:22:35.932Z,2.92
2017-06-12T09:25:04.816Z,2.94
2017-06-12T09:27:33.592Z,2.90
2017-06-12T09:30:02.612Z,3.00
2017-06-12T09:32:31.493Z,2.82
2017-06-12T09:35:00.279Z,2.86
2017-06-12T09:37:29.067Z,2.74
2017-06-12T09:39:57.887Z,2.48
2017-06-12T09:42:26.752Z,3.22
2017-06-12T09:44:56.500Z,3.00
2017-06-12T09:47:25.350Z,2.76
2017-06-12T09:49:54.121Z,3.38
2017-06-12T09:52:22.892Z,3.34
2017-06-12T09:54:51.821Z,3.88
2017-06-12T09:57:20.587Z,3.52
2017-06-12T09:59:49.352Z,3.20
2017-06-12T10:02:18.175Z,2.78
2017-06-12T10:04:46.959Z,3.00
2017-06-12T10:07:15.748Z,3.54
2017-06-12T10:09:44.639Z,3.22
2017-06-12T10:12:13.427Z,3.74
2017-06-12T10:14:42.195Z,3.20
2017-06-12T10:17:11.008Z,3.30
2017-06-12T10:19:39.776Z,3.56
2017-06-12T10:22:08.575Z,3.46
2017-06-12T10:24:37.556Z,3.28
2017-06-12T10:27:06.276Z,3.72
2017-06-12T10:29:35.039Z,4.06
2017-06-12T10:32:04.043Z,3.30
2017-06-12T10:34:32.835Z,3.68
2017-06-12T10:37:01.621Z,3.82
2017-06-12T10:39:30.503Z,4.02
2017-06-12T10:41:59.287Z,3.82
2017-06-12T10:44:28.052Z,3.64
2017-06-12T10:46:56.863Z,4.38
2017-06-12T10:49:25.631Z,4.04
2017-06-12T10:51:54.443Z,3.54
2017-06-12T10:54:23.220Z,3.90
2017-06-12T10:56:51.979Z,4.30
2017-06-12T10:59:20.755Z,3.78
2017-06-12T11:01:49.538Z,4.18
2017-06-12T11:04:18.307Z,4.36
2017-06-12T11:06:47.159Z,4.04
2017-06-12T11:09:15.951Z,3.86
2017-06-12T11:11:44.719Z,3.96
2017-06-12T11:14:13.486Z,4.42
2017-06-12T11:16:42.315Z,4.50
2017-06-12T11:19:11.078Z,4.88
2017-06-12T11:21:45.539Z,5.74
2017-06-12T11:24:14.306Z,6.00
2017-06-12T11:26:47.018Z,4.92
2017-06-12T11:29:15.782Z,5.58
2017-06-12T11:31:44.555Z,5.38
2017-06-12T11:34:13.555Z,5.16
2017-06-12T11:36:42.355Z,5.30
2017-06-12T11:39:11.242Z,4.88
2017-06-12T11:41:40.235Z,4.66
2017-06-12T11:44:09.127Z,4.90
2017-06-12T11:46:37.890Z,5.08
2017-06-12T11:49:06.894Z,6.14
2017-06-12T11:51:37.706Z,4.60
2017-06-12T11:54:06.718Z,5.20
2017-06-12T11:56:35.486Z,5.22
2017-06-12T11:59:04.334Z,5.32
2017-06-12T12:01:33.290Z,5.02
2017-06-12T12:04:02.062Z,5.02
2017-06-12T12:06:30.847Z,5.02
2017-06-12T12:08:59.746Z,5.46
2017-06-12T12:11:28.530Z,5.22
2017-06-12T12:13:57.294Z,4.44
2017-06-12T12:29:17.318Z,3.82
2017-06-12T12:31:46.081Z,4.32
2017-06-12T12:34:14.974Z,4.52
2017-06-12T12:36:43.961Z,4.64
2017-06-12T12:39:12.750Z,4.90
2017-06-12T12:41:41.529Z,4.58
2017-06-12T12:44:10.333Z,4.24
2017-06-12T12:46:39.114Z,3.86
2017-06-12T12:49:07.893Z,3.60
2017-06-12T12:51:36.685Z,3.32
2017-06-12T12:54:05.533Z,4.22
2017-06-12T12:56:34.377Z,3.68
2017-06-12T12:59:03.357Z,3.82
2017-06-12T13:01:32.129Z,3.00
2017-06-12T13:04:00.898Z,3.40
2017-06-12T13:06:29.729Z,3.28
2017-06-12T13:08:58.505Z,3.12
2017-06-12T13:11:27.298Z,3.10
2017-06-12T13:13:56.185Z,2.72
2017-06-12T13:16:24.973Z,2.42
2017-06-12T13:18:53.853Z,2.54
2017-06-12T13:23:57.905Z,2.90
2017-06-12T13:26:26.685Z,2.50
2017-06-12T13:28:55.473Z,2.30
2017-06-12T13:31:24.241Z,2.70
2017-06-12T13:33:53.041Z,2.30
2017-06-12T13:36:21.809Z,2.80
2017-06-12T13:38:50.581Z,2.30
2017-06-12T13:41:19.404Z,2.50
2017-06-12T13:43:48.182Z,2.74
2017-06-12T13:46:16.949Z,2.90
2017-06-12T13:48:45.733Z,2.20
2017-06-12T13:51:14.493Z,2.12
2017-06-12T13:53:43.345Z,2.44
2017-06-12T13:56:12.240Z,2.08
2017-06-12T13:58:41.013Z,2.16
2017-06-12T14:01:09.817Z,2.14
2017-06-12T14:03:38.592Z,2.72
2017-06-12T14:06:07.475Z,2.40
2017-06-12T14:08:37.137Z,2.04
2017-06-12T14:11:06.300Z,3.04
2017-06-12T14:13:35.081Z,2.28
2017-06-12T14:16:03.875Z,2.56
2017-06-12T14:18:32.864Z,2.02
2017-06-12T14:21:01.632Z,2.24
2017-06-12T14:23:30.452Z,2.62
2017-06-12T14:25:59.228Z,2.30
2017-06-12T14:28:28.001Z,2.16
2017-06-12T14:30:56.768Z,2.78
2017-06-12T14:33:25.684Z,2.02
2017-06-12T14:35:54.448Z,2.46
2017-06-12T14:38:23.264Z,1.96
2017-06-12T14:40:52.036Z,2.16
2017-06-12T14:43:20.836Z,2.10
2017-06-12T14:45:49.600Z,2.40
2017-06-12T14:48:19.372Z,1.98
2017-06-12T14:50:48.140Z,2.00
2017-06-12T14:53:17.228Z,1.74
2017-06-12T14:55:46.008Z,1.96
2017-06-12T14:58:14.768Z,1.78
2017-06-12T15:00:43.588Z,1.48
2017-06-12T15:03:12.488Z,2.00
2017-06-12T15:05:41.259Z,1.72
2017-06-12T15:08:10.024Z,1.66
2017-06-12T15:10:39.036Z,1.78
2017-06-12T15:13:07.915Z,1.88
2017-06-12T15:15:36.640Z,1.68
2017-06-12T15:18:05.412Z,1.84
2017-06-12T15:20:34.289Z,1.80
2017-06-12T15:23:03.075Z,1.92
2017-06-12T15:25:32.067Z,1.56
2017-06-12T15:28:00.840Z,1.80
2017-06-12T15:30:29.600Z,1.70
2017-06-12T15:32:58.375Z,1.78
2017-06-12T15:35:27.228Z,2.36
2017-06-12T15:37:56.108Z,2.10
2017-06-12T15:40:24.895Z,2.16
2017-06-12T15:42:53.683Z,2.00
2017-06-12T15:45:22.471Z,1.64
2017-06-12T15:47:51.463Z,1.64
2017-06-12T15:50:20.252Z,1.74
2017-06-12T15:52:49.020Z,1.70
2017-06-12T15:55:17.816Z,2.18
2017-06-12T15:57:46.620Z,2.30
2017-06-12T16:00:15.379Z,1.90
2017-06-12T16:02:44.191Z,1.52
2017-06-12T16:05:13.468Z,1.60
2017-06-12T16:07:42.227Z,1.86
2017-06-12T16:10:11.052Z,1.70
2017-06-12T16:12:39.815Z,1.38
2017-06-12T16:15:08.579Z,1.90
2017-06-12T16:17:37.631Z,1.66
2017-06-12T16:20:06.404Z,1.38
2017-06-12T16:22:35.207Z,1.62
2017-06-12T16:25:05.683Z,1.64
2017-06-12T16:27:34.679Z,1.54
2017-06-12T16:30:03.515Z,1.68
2017-06-12T16:32:32.506Z,1.68
2017-06-12T16:35:01.295Z,1.38
2017-06-12T16:37:30.071Z,1.76
2017-06-12T16:39:58.839Z,1.28
2017-06-12T16:42:27.667Z,1.56
2017-06-12T16:44:56.455Z,1.50
2017-06-12T16:47:25.335Z,1.54
2017-06-12T16:49:54.099Z,1.52
2017-06-12T16:52:23.003Z,2.00
2017-06-12T16:54:51.739Z,1.90
2017-06-12T16:57:20.499Z,1.86
2017-06-12T16:59:49.291Z,2.16
2017-06-12T17:02:18.183Z,1.40
2017-06-12T17:04:46.947Z,1.42
2017-06-12T17:07:15.710Z,1.90
2017-06-12T17:09:44.483Z,1.14
2017-06-12T17:12:13.259Z,1.38
2017-06-12T17:14:42.019Z,1.40
2017-06-12T17:17:10.790Z,1.24
2017-06-12T17:19:39.591Z,1.48
2017-06-12T17:22:08.351Z,1.38
2017-06-12T17:24:37.123Z,1.14
2017-06-12T17:27:06.628Z,1.36
2017-06-12T17:29:35.390Z,1.30
2017-06-12T17:32:04.346Z,1.14
2017-06-12T17:34:33.218Z,1.40
2017-06-12T17:37:01.982Z,1.54
2017-06-12T17:39:30.755Z,1.10
2017-06-12T17:41:59.522Z,1.04
2017-06-12T17:44:28.370Z,1.14
2017-06-12T17:46:57.162Z,1.30
2017-06-12T17:49:25.922Z,1.20
2017-06-12T17:51:54.738Z,1.26
2017-06-12T17:54:23.522Z,1.18
2017-06-12T17:56:52.306Z,1.24
2017-06-12T17:59:21.098Z,0.92
2017-06-12T18:01:49.987Z,1.06
2017-06-12T18:04:18.782Z,1.42
2017-06-12T18:06:47.533Z,1.02
2017-06-12T18:09:16.302Z,1.30
2017-06-12T18:11:45.134Z,1.22
2017-06-12T18:14:13.922Z,1.14
2017-06-12T18:16:42.710Z,1.20
2017-06-12T18:19:11.477Z,1.40
2017-06-12T18:21:40.289Z,1.10
2017-06-12T18:24:09.217Z,1.18
2017-06-12T18:26:37.949Z,1.00
2017-06-12T18:29:06.710Z,1.02
2017-06-12T18:31:35.646Z,1.98
2017-06-12T18:50:14.650Z,1.10
2017-06-12T18:52:43.461Z,1.00
2017-06-12T18:55:12.246Z,0.84
2017-06-12T18:57:41.037Z,0.92
2017-06-12T19:00:09.805Z,1.00
2017-06-12T19:02:38.617Z,1.02
2017-06-12T19:05:07.494Z,0.80
2017-06-12T19:07:36.290Z,1.12
2017-06-12T19:10:05.082Z,0.94
2017-06-12T19:12:34.065Z,1.12
2017-06-12T19:15:02.833Z,1.08
2017-06-12T19:17:31.597Z,0.84
2017-06-12T19:20:00.497Z,0.70
2017-06-12T19:22:29.329Z,0.98
2017-06-12T19:24:58.097Z,1.20
2017-06-12T19:27:27.105Z,1.00
2017-06-12T19:29:55.873Z,1.08
2017-06-12T19:32:24.633Z,1.40
2017-06-12T19:34:53.417Z,0.86
2017-06-12T19:37:22.241Z,1.18
2017-06-12T19:39:50.965Z,1.20
2017-06-12T19:42:19.737Z,1.18
2017-06-12T19:44:48.617Z,0.90
2017-06-12T19:47:17.393Z,1.32
2017-06-12T19:49:46.174Z,0.80
2017-06-12T19:52:14.937Z,0.92
2017-06-12T19:54:43.712Z,1.80
2017-06-12T19:57:12.617Z,1.10
2017-06-12T19:59:41.377Z,0.70
2017-06-12T20:02:10.140Z,0.96
2017-06-12T20:04:38.908Z,0.90
2017-06-12T20:07:07.673Z,1.02
2017-06-12T20:09:36.437Z,0.96
2017-06-12T20:12:05.233Z,1.22
2017-06-12T20:14:34.005Z,1.06
2017-06-12T20:17:02.788Z,0.84
2017-06-12T20:19:31.561Z,1.02
2017-06-12T20:22:00.333Z,0.98
2017-06-12T20:24:29.117Z,1.08
2017-06-12T20:26:57.893Z,0.88
2017-06-12T20:29:26.665Z,0.90
2017-06-12T20:31:55.432Z,0.94
2017-06-12T20:34:24.209Z,1.30
2017-06-12T20:36:52.983Z,1.10
2017-06-12T20:39:21.752Z,1.42
2017-06-12T20:41:50.548Z,1.10
2017-06-12T20:44:19.325Z,0.94
2017-06-12T20:46:48.100Z,1.02
2017-06-12T20:49:16.880Z,0.76
2017-06-12T20:51:45.656Z,0.86
2017-06-12T20:54:14.420Z,1.20
2017-06-12T20:56:43.204Z,1.04
2017-06-12T20:59:11.980Z,1.40
2017-06-12T21:01:40.752Z,0.98
2017-06-12T21:04:09.536Z,1.14
2017-06-12T21:06:38.308Z,1.06
2017-06-12T21:09:07.080Z,1.14
2017-06-12T21:11:35.865Z,1.52
2017-06-12T21:14:05.492Z,0.90
2017-06-12T21:16:34.259Z,0.98
2017-06-12T21:19:03.048Z,0.98
2017-06-12T21:21:31.816Z,1.14
2017-06-12T21:24:00.600Z,1.36
2017-06-12T21:26:29.372Z,1.18
2017-06-12T21:28:58.147Z,1.42
2017-06-12T21:31:26.927Z,1.30
2017-06-12T21:33:55.704Z,1.54
2017-06-12T21:36:24.475Z,1.06
2017-06-12T21:38:53.247Z,1.30
2017-06-12T21:41:22.040Z,1.08
2017-06-12T21:43:50.819Z,1.20
2017-06-12T21:46:19.579Z,1.26
2017-06-12T21:48:48.407Z,1.06
2017-06-12T21:51:17.167Z,1.10
2017-06-12T21:53:45.951Z,1.26
2017-06-12T21:56:14.751Z,1.30
2017-06-12T21:58:43.523Z,1.00
2017-06-12T22:01:12.287Z,1.02
2017-06-12T22:03:41.072Z,1.22
2017-06-12T22:06:09.844Z,0.90
2017-06-12T22:08:38.611Z,1.40
2017-06-12T22:11:07.395Z,1.22
2017-06-12T22:13:36.159Z,1.30
2017-06-12T22:16:04.979Z,1.28
2017-06-12T22:18:33.711Z,1.32
2017-06-12T22:21:01.728Z,1.20
2017-06-12T22:23:30.500Z,1.16
2017-06-12T22:25:59.291Z,0.96
2017-06-12T22:28:28.179Z,1.90
2017-06-12T22:30:56.935Z,1.16
2017-06-12T22:33:25.711Z,1.32
2017-06-12T22:35:54.503Z,1.10
2017-06-12T22:38:23.275Z,1.54
2017-06-12T22:40:52.056Z,1.30
2017-06-12T22:43:20.818Z,1.10
2017-06-12T22:45:49.587Z,1.00
2017-06-12T22:48:18.367Z,1.40
2017-06-12T22:50:47.138Z,1.38
2017-06-12T22:53:15.906Z,1.24
2017-06-12T22:55:44.682Z,1.40
2017-06-12T22:58:13.478Z,2.10
2017-06-12T23:00:42.282Z,1.70
2017-06-12T23:03:11.062Z,1.40
2017-06-12T23:05:39.835Z,1.20
2017-06-12T23:08:08.602Z,1.00
2017-06-12T23:10:37.383Z,1.22
2017-06-12T23:13:06.162Z,1.52
2017-06-12T23:15:34.934Z,1.58
2017-06-12T23:18:03.710Z,1.28
2017-06-12T23:20:32.470Z,1.52
2017-06-12T23:23:02.018Z,1.44
2017-06-12T23:25:45.690Z,2.04
2017-06-12T23:28:14.486Z,1.66
2017-06-12T23:30:43.262Z,1.86
2017-06-12T23:33:12.994Z,1.80
2017-06-12T23:35:41.782Z,1.52
2017-06-12T23:38:10.554Z,2.00
2017-06-12T23:40:39.329Z,1.82
2017-06-12T23:43:13.458Z,1.62
2017-06-12T23:45:42.389Z,2.02
2017-06-12T23:48:11.166Z,1.96
2017-06-12T23:50:39.926Z,2.20
2017-06-12T23:53:08.723Z,1.50
2017-06-12T23:55:37.498Z,2.30
2017-06-12T23:58:06.274Z,1.78
